sensor_id;sensor_type;location;lat;lon;timestamp;P1;durP1;ratioP1;P2;durP2;ratioP2
3571;SDS011;7958;53.024;12.970;2023-04-03T00:01:58;4.23;;;1.00;;
3571;SDS011;7958;53.024;12.970;2023-04-03T00:04:24;2.20;;;1.20;;
3571;SDS011;7958;53.024;12.970;2023-04-03T00:06:52;5.07;;;1.37;;
3571;SDS011;7958;53.024;12.970;2023-04-03T00:09:18;2.40;;;1.10;;
3571;SDS011;7958;53.024;12.970;2023-04-03T00:11:45;1.63;;;1.00;;
3571;SDS011;7958;53.024;12.970;2023-04-03T00:14:11;1.10;;;1.10;;
3571;SDS011;7958;53.024;12.970;2023-04-03T00:16:38;4.93;;;0.93;;
3571;SDS011;7958;53.024;12.970;2023-04-03T00:19:05;4.80;;;1.33;;
3571;SDS011;7958;53.024;12.970;2023-04-03T00:21:32;4.17;;;1.00;;
3571;SDS011;7958;53.024;12.970;2023-04-03T00:24:00;1.17;;;1.00;;
3571;SDS011;7958;53.024;12.970;2023-04-03T00:26:27;2.80;;;1.40;;
3571;SDS011;7958;53.024;12.970;2023-04-03T00:28:54;1.07;;;0.93;;
3571;SDS011;7958;53.024;12.970;2023-04-03T00:31:21;2.57;;;1.07;;
3571;SDS011;7958;53.024;12.970;2023-04-03T00:33:47;1.10;;;1.10;;
3571;SDS011;7958;53.024;12.970;2023-04-03T00:36:14;4.97;;;0.90;;
3571;SDS011;7958;53.024;12.970;2023-04-03T00:38:42;2.10;;;1.10;;
3571;SDS011;7958;53.024;12.970;2023-04-03T00:41:09;1.03;;;0.93;;
3571;SDS011;7958;53.024;12.970;2023-04-03T00:43:36;2.57;;;0.90;;
3571;SDS011;7958;53.024;12.970;2023-04-03T00:46:03;0.83;;;0.83;;
3571;SDS011;7958;53.024;12.970;2023-04-03T00:48:30;0.90;;;0.90;;
3571;SDS011;7958;53.024;12.970;2023-04-03T00:50:58;0.80;;;0.80;;
3571;SDS011;7958;53.024;12.970;2023-04-03T00:53:26;3.93;;;1.00;;
3571;SDS011;7958;53.024;12.970;2023-04-03T00:55:54;2.93;;;0.70;;
3571;SDS011;7958;53.024;12.970;2023-04-03T00:58:31;2.20;;;1.20;;
3571;SDS011;7958;53.024;12.970;2023-04-03T01:01:00;2.87;;;1.30;;
3571;SDS011;7958;53.024;12.970;2023-04-03T01:03:30;1.20;;;0.93;;
3571;SDS011;7958;53.024;12.970;2023-04-03T01:05:57;2.43;;;0.90;;
3571;SDS011;7958;53.024;12.970;2023-04-03T01:08:24;1.23;;;0.80;;
3571;SDS011;7958;53.024;12.970;2023-04-03T01:10:51;3.30;;;0.93;;
3571;SDS011;7958;53.024;12.970;2023-04-03T01:13:19;1.73;;;0.73;;
3571;SDS011;7958;53.024;12.970;2023-04-03T01:15:48;2.40;;;0.63;;
3571;SDS011;7958;53.024;12.970;2023-04-03T01:18:15;2.03;;;1.10;;
3571;SDS011;7958;53.024;12.970;2023-04-03T01:20:57;1.80;;;0.70;;
3571;SDS011;7958;53.024;12.970;2023-04-03T01:23:57;2.13;;;1.27;;
3571;SDS011;7958;53.024;12.970;2023-04-03T01:26:35;0.80;;;0.80;;
3571;SDS011;7958;53.024;12.970;2023-04-03T01:29:01;2.00;;;0.97;;
3571;SDS011;7958;53.024;12.970;2023-04-03T01:31:30;2.10;;;1.43;;
3571;SDS011;7958;53.024;12.970;2023-04-03T01:34:02;6.20;;;0.70;;
3571;SDS011;7958;53.024;12.970;2023-04-03T01:36:30;2.50;;;0.90;;
3571;SDS011;7958;53.024;12.970;2023-04-03T01:38:58;0.93;;;0.60;;
3571;SDS011;7958;53.024;12.970;2023-04-03T01:41:25;0.87;;;0.80;;
3571;SDS011;7958;53.024;12.970;2023-04-03T01:43:51;1.97;;;1.10;;
3571;SDS011;7958;53.024;12.970;2023-04-03T01:46:18;1.30;;;0.90;;
3571;SDS011;7958;53.024;12.970;2023-04-03T01:48:46;2.03;;;1.00;;
3571;SDS011;7958;53.024;12.970;2023-04-03T01:51:14;3.70;;;0.80;;
3571;SDS011;7958;53.024;12.970;2023-04-03T01:53:41;1.27;;;0.93;;
3571;SDS011;7958;53.024;12.970;2023-04-03T01:56:07;1.50;;;0.87;;
3571;SDS011;7958;53.024;12.970;2023-04-03T01:58:34;1.53;;;1.10;;
3571;SDS011;7958;53.024;12.970;2023-04-03T02:01:01;4.67;;;0.97;;
3571;SDS011;7958;53.024;12.970;2023-04-03T02:03:27;1.73;;;1.00;;
3571;SDS011;7958;53.024;12.970;2023-04-03T02:05:54;1.67;;;0.70;;
3571;SDS011;7958;53.024;12.970;2023-04-03T02:08:22;1.43;;;0.93;;
3571;SDS011;7958;53.024;12.970;2023-04-03T02:10:49;1.13;;;1.03;;
3571;SDS011;7958;53.024;12.970;2023-04-03T02:13:16;1.37;;;1.20;;
3571;SDS011;7958;53.024;12.970;2023-04-03T02:15:43;2.93;;;1.37;;
3571;SDS011;7958;53.024;12.970;2023-04-03T02:18:10;1.33;;;1.00;;
3571;SDS011;7958;53.024;12.970;2023-04-03T02:20:36;3.63;;;1.00;;
3571;SDS011;7958;53.024;12.970;2023-04-03T02:23:03;2.93;;;1.27;;
3571;SDS011;7958;53.024;12.970;2023-04-03T02:25:32;2.93;;;0.90;;
3571;SDS011;7958;53.024;12.970;2023-04-03T02:27:58;0.80;;;0.80;;
3571;SDS011;7958;53.024;12.970;2023-04-03T02:30:25;1.50;;;1.00;;
3571;SDS011;7958;53.024;12.970;2023-04-03T02:32:51;7.57;;;1.20;;
3571;SDS011;7958;53.024;12.970;2023-04-03T02:35:18;2.00;;;1.00;;
3571;SDS011;7958;53.024;12.970;2023-04-03T02:37:45;2.70;;;0.90;;
3571;SDS011;7958;53.024;12.970;2023-04-03T02:40:11;3.70;;;1.00;;
3571;SDS011;7958;53.024;12.970;2023-04-03T02:42:39;6.97;;;1.10;;
3571;SDS011;7958;53.024;12.970;2023-04-03T02:45:06;7.10;;;1.40;;
3571;SDS011;7958;53.024;12.970;2023-04-03T02:47:33;2.90;;;1.10;;
3571;SDS011;7958;53.024;12.970;2023-04-03T02:49:59;1.27;;;0.70;;
3571;SDS011;7958;53.024;12.970;2023-04-03T02:52:27;2.70;;;1.03;;
3571;SDS011;7958;53.024;12.970;2023-04-03T02:54:54;3.83;;;1.50;;
3571;SDS011;7958;53.024;12.970;2023-04-03T02:57:21;3.73;;;1.57;;
3571;SDS011;7958;53.024;12.970;2023-04-03T02:59:48;5.00;;;1.20;;
3571;SDS011;7958;53.024;12.970;2023-04-03T03:02:15;1.63;;;1.13;;
3571;SDS011;7958;53.024;12.970;2023-04-03T03:04:42;0.80;;;0.80;;
3571;SDS011;7958;53.024;12.970;2023-04-03T03:07:09;2.47;;;0.90;;
3571;SDS011;7958;53.024;12.970;2023-04-03T03:09:36;4.60;;;1.03;;
3571;SDS011;7958;53.024;12.970;2023-04-03T03:12:02;2.23;;;0.77;;
3571;SDS011;7958;53.024;12.970;2023-04-03T03:14:29;2.87;;;1.03;;
3571;SDS011;7958;53.024;12.970;2023-04-03T03:16:57;3.00;;;1.30;;
3571;SDS011;7958;53.024;12.970;2023-04-03T03:19:23;4.20;;;1.30;;
3571;SDS011;7958;53.024;12.970;2023-04-03T03:21:50;2.70;;;1.00;;
3571;SDS011;7958;53.024;12.970;2023-04-03T03:24:17;1.70;;;1.10;;
3571;SDS011;7958;53.024;12.970;2023-04-03T03:26:43;1.40;;;0.80;;
3571;SDS011;7958;53.024;12.970;2023-04-03T03:29:09;1.00;;;0.90;;
3571;SDS011;7958;53.024;12.970;2023-04-03T03:31:36;3.03;;;0.80;;
3571;SDS011;7958;53.024;12.970;2023-04-03T03:34:03;5.57;;;1.10;;
3571;SDS011;7958;53.024;12.970;2023-04-03T03:36:30;1.00;;;0.90;;
3571;SDS011;7958;53.024;12.970;2023-04-03T03:38:57;0.93;;;0.77;;
3571;SDS011;7958;53.024;12.970;2023-04-03T03:41:24;2.57;;;1.33;;
3571;SDS011;7958;53.024;12.970;2023-04-03T03:43:50;1.93;;;1.00;;
3571;SDS011;7958;53.024;12.970;2023-04-03T03:46:17;4.63;;;1.30;;
3571;SDS011;7958;53.024;12.970;2023-04-03T03:48:43;1.70;;;1.30;;
3571;SDS011;7958;53.024;12.970;2023-04-03T03:51:11;0.97;;;0.90;;
3571;SDS011;7958;53.024;12.970;2023-04-03T03:53:38;1.50;;;0.80;;
3571;SDS011;7958;53.024;12.970;2023-04-03T03:56:04;2.10;;;0.97;;
3571;SDS011;7958;53.024;12.970;2023-04-03T03:58:31;4.43;;;1.23;;
3571;SDS011;7958;53.024;12.970;2023-04-03T04:01:00;2.30;;;0.90;;
3571;SDS011;7958;53.024;12.970;2023-04-03T04:03:26;2.23;;;1.20;;
3571;SDS011;7958;53.024;12.970;2023-04-03T04:05:53;1.33;;;1.03;;
3571;SDS011;7958;53.024;12.970;2023-04-03T04:08:21;1.83;;;0.97;;
3571;SDS011;7958;53.024;12.970;2023-04-03T04:10:48;1.80;;;0.97;;
3571;SDS011;7958;53.024;12.970;2023-04-03T04:13:14;1.00;;;1.00;;
3571;SDS011;7958;53.024;12.970;2023-04-03T04:15:41;3.33;;;1.50;;
3571;SDS011;7958;53.024;12.970;2023-04-03T04:18:08;2.40;;;1.00;;
3571;SDS011;7958;53.024;12.970;2023-04-03T04:20:34;3.53;;;1.40;;
3571;SDS011;7958;53.024;12.970;2023-04-03T04:23:01;1.13;;;0.70;;
3571;SDS011;7958;53.024;12.970;2023-04-03T04:25:29;2.60;;;1.20;;
3571;SDS011;7958;53.024;12.970;2023-04-03T04:27:55;1.90;;;0.83;;
3571;SDS011;7958;53.024;12.970;2023-04-03T04:30:21;1.57;;;0.90;;
3571;SDS011;7958;53.024;12.970;2023-04-03T04:32:48;1.03;;;0.97;;
3571;SDS011;7958;53.024;12.970;2023-04-03T04:35:14;3.50;;;1.23;;
3571;SDS011;7958;53.024;12.970;2023-04-03T04:37:41;3.37;;;1.00;;
3571;SDS011;7958;53.024;12.970;2023-04-03T04:40:08;1.10;;;0.83;;
3571;SDS011;7958;53.024;12.970;2023-04-03T04:42:36;2.43;;;0.87;;
3571;SDS011;7958;53.024;12.970;2023-04-03T04:45:03;0.87;;;0.87;;
3571;SDS011;7958;53.024;12.970;2023-04-03T04:47:30;5.13;;;1.20;;
3571;SDS011;7958;53.024;12.970;2023-04-03T04:49:57;5.60;;;1.10;;
3571;SDS011;7958;53.024;12.970;2023-04-03T04:52:24;2.00;;;1.20;;
3571;SDS011;7958;53.024;12.970;2023-04-03T04:54:50;2.77;;;1.00;;
3571;SDS011;7958;53.024;12.970;2023-04-03T04:57:17;1.90;;;1.00;;
3571;SDS011;7958;53.024;12.970;2023-04-03T04:59:45;3.23;;;1.10;;
3571;SDS011;7958;53.024;12.970;2023-04-03T05:02:11;4.63;;;0.80;;
3571;SDS011;7958;53.024;12.970;2023-04-03T05:04:38;1.13;;;1.03;;
3571;SDS011;7958;53.024;12.970;2023-04-03T05:07:04;3.57;;;1.03;;
3571;SDS011;7958;53.024;12.970;2023-04-03T05:09:31;1.70;;;0.73;;
3571;SDS011;7958;53.024;12.970;2023-04-03T05:11:57;2.50;;;1.20;;
3571;SDS011;7958;53.024;12.970;2023-04-03T05:14:24;6.07;;;1.37;;
3571;SDS011;7958;53.024;12.970;2023-04-03T05:16:53;2.93;;;0.87;;
3571;SDS011;7958;53.024;12.970;2023-04-03T05:19:20;3.90;;;0.90;;
3571;SDS011;7958;53.024;12.970;2023-04-03T05:21:46;2.50;;;0.90;;
3571;SDS011;7958;53.024;12.970;2023-04-03T05:24:13;5.30;;;1.50;;
3571;SDS011;7958;53.024;12.970;2023-04-03T05:26:41;2.20;;;1.10;;
3571;SDS011;7958;53.024;12.970;2023-04-03T05:29:08;2.57;;;1.03;;
3571;SDS011;7958;53.024;12.970;2023-04-03T05:31:35;2.53;;;0.87;;
3571;SDS011;7958;53.024;12.970;2023-04-03T05:34:03;3.40;;;0.73;;
3571;SDS011;7958;53.024;12.970;2023-04-03T05:36:29;0.87;;;0.80;;
3571;SDS011;7958;53.024;12.970;2023-04-03T05:38:56;1.57;;;1.00;;
3571;SDS011;7958;53.024;12.970;2023-04-03T05:41:22;1.80;;;1.10;;
3571;SDS011;7958;53.024;12.970;2023-04-03T05:43:49;0.90;;;0.90;;
3571;SDS011;7958;53.024;12.970;2023-04-03T05:46:16;4.03;;;1.03;;
3571;SDS011;7958;53.024;12.970;2023-04-03T05:48:45;1.57;;;1.27;;
3571;SDS011;7958;53.024;12.970;2023-04-03T05:51:15;1.63;;;1.00;;
3571;SDS011;7958;53.024;12.970;2023-04-03T05:53:43;1.37;;;1.10;;
3571;SDS011;7958;53.024;12.970;2023-04-03T05:56:09;2.37;;;1.20;;
3571;SDS011;7958;53.024;12.970;2023-04-03T05:58:36;2.20;;;0.80;;
3571;SDS011;7958;53.024;12.970;2023-04-03T06:01:03;1.00;;;0.90;;
3571;SDS011;7958;53.024;12.970;2023-04-03T06:03:30;3.57;;;0.90;;
3571;SDS011;7958;53.024;12.970;2023-04-03T06:05:57;1.37;;;0.80;;
3571;SDS011;7958;53.024;12.970;2023-04-03T06:08:25;2.27;;;1.00;;
3571;SDS011;7958;53.024;12.970;2023-04-03T06:10:52;2.80;;;0.90;;
3571;SDS011;7958;53.024;12.970;2023-04-03T06:13:20;1.30;;;0.93;;
3571;SDS011;7958;53.024;12.970;2023-04-03T06:15:47;4.33;;;1.10;;
3571;SDS011;7958;53.024;12.970;2023-04-03T06:18:15;4.83;;;1.10;;
3571;SDS011;7958;53.024;12.970;2023-04-03T06:20:41;4.17;;;1.63;;
3571;SDS011;7958;53.024;12.970;2023-04-03T06:23:08;2.00;;;1.07;;
3571;SDS011;7958;53.024;12.970;2023-04-03T06:25:36;1.57;;;0.80;;
3571;SDS011;7958;53.024;12.970;2023-04-03T06:28:03;2.20;;;0.83;;
3571;SDS011;7958;53.024;12.970;2023-04-03T06:30:29;1.13;;;0.83;;
3571;SDS011;7958;53.024;12.970;2023-04-03T06:32:56;7.00;;;1.40;;
3571;SDS011;7958;53.024;12.970;2023-04-03T06:35:25;3.43;;;1.00;;
3571;SDS011;7958;53.024;12.970;2023-04-03T06:37:53;4.73;;;1.50;;
3571;SDS011;7958;53.024;12.970;2023-04-03T06:40:26;1.20;;;0.87;;
3571;SDS011;7958;53.024;12.970;2023-04-03T06:42:55;3.67;;;1.10;;
3571;SDS011;7958;53.024;12.970;2023-04-03T06:45:30;2.23;;;0.90;;
3571;SDS011;7958;53.024;12.970;2023-04-03T06:48:01;3.13;;;1.00;;
3571;SDS011;7958;53.024;12.970;2023-04-03T06:50:30;2.83;;;0.80;;
3571;SDS011;7958;53.024;12.970;2023-04-03T06:52:57;1.17;;;0.83;;
3571;SDS011;7958;53.024;12.970;2023-04-03T06:55:24;1.70;;;1.17;;
3571;SDS011;7958;53.024;12.970;2023-04-03T06:57:51;2.97;;;1.10;;
3571;SDS011;7958;53.024;12.970;2023-04-03T07:00:22;1.17;;;1.07;;
3571;SDS011;7958;53.024;12.970;2023-04-03T07:02:49;3.10;;;0.90;;
3571;SDS011;7958;53.024;12.970;2023-04-03T07:05:16;1.13;;;0.77;;
3571;SDS011;7958;53.024;12.970;2023-04-03T07:07:43;1.57;;;0.73;;
3571;SDS011;7958;53.024;12.970;2023-04-03T07:10:09;0.87;;;0.70;;
3571;SDS011;7958;53.024;12.970;2023-04-03T07:12:36;3.30;;;1.10;;
3571;SDS011;7958;53.024;12.970;2023-04-03T07:15:03;2.00;;;0.90;;
3571;SDS011;7958;53.024;12.970;2023-04-03T07:17:31;1.00;;;0.80;;
3571;SDS011;7958;53.024;12.970;2023-04-03T07:19:58;2.93;;;0.93;;
3571;SDS011;7958;53.024;12.970;2023-04-03T07:22:24;9.40;;;3.60;;
3571;SDS011;7958;53.024;12.970;2023-04-03T07:24:50;1.53;;;0.80;;
3571;SDS011;7958;53.024;12.970;2023-04-03T07:27:18;1.10;;;1.00;;
3571;SDS011;7958;53.024;12.970;2023-04-03T07:29:44;1.23;;;0.97;;
3571;SDS011;7958;53.024;12.970;2023-04-03T07:32:17;1.53;;;0.90;;
3571;SDS011;7958;53.024;12.970;2023-04-03T07:34:45;1.97;;;0.80;;
3571;SDS011;7958;53.024;12.970;2023-04-03T07:37:12;2.50;;;1.50;;
3571;SDS011;7958;53.024;12.970;2023-04-03T07:39:38;2.43;;;1.37;;
3571;SDS011;7958;53.024;12.970;2023-04-03T07:42:06;0.90;;;0.80;;
3571;SDS011;7958;53.024;12.970;2023-04-03T07:44:33;1.00;;;0.90;;
3571;SDS011;7958;53.024;12.970;2023-04-03T07:47:00;1.03;;;0.87;;
3571;SDS011;7958;53.024;12.970;2023-04-03T07:49:26;1.30;;;0.90;;
3571;SDS011;7958;53.024;12.970;2023-04-03T07:51:55;2.70;;;1.20;;
3571;SDS011;7958;53.024;12.970;2023-04-03T07:54:22;2.13;;;1.23;;
3571;SDS011;7958;53.024;12.970;2023-04-03T07:56:48;1.60;;;1.10;;
3571;SDS011;7958;53.024;12.970;2023-04-03T07:59:15;3.37;;;1.00;;
3571;SDS011;7958;53.024;12.970;2023-04-03T08:01:41;1.03;;;0.93;;
3571;SDS011;7958;53.024;12.970;2023-04-03T08:04:08;1.53;;;1.03;;
3571;SDS011;7958;53.024;12.970;2023-04-03T08:06:35;1.23;;;0.73;;
3571;SDS011;7958;53.024;12.970;2023-04-03T08:09:04;1.83;;;0.97;;
3571;SDS011;7958;53.024;12.970;2023-04-03T08:11:30;1.37;;;1.10;;
3571;SDS011;7958;53.024;12.970;2023-04-03T08:13:57;3.47;;;0.80;;
3571;SDS011;7958;53.024;12.970;2023-04-03T08:16:24;2.13;;;1.27;;
3571;SDS011;7958;53.024;12.970;2023-04-03T08:18:52;4.30;;;1.10;;
3571;SDS011;7958;53.024;12.970;2023-04-03T08:21:19;0.80;;;0.80;;
3571;SDS011;7958;53.024;12.970;2023-04-03T08:23:47;2.60;;;1.10;;
3571;SDS011;7958;53.024;12.970;2023-04-03T08:26:17;2.40;;;1.13;;
3571;SDS011;7958;53.024;12.970;2023-04-03T08:28:45;3.33;;;1.37;;
3571;SDS011;7958;53.024;12.970;2023-04-03T08:31:13;2.40;;;1.17;;
3571;SDS011;7958;53.024;12.970;2023-04-03T08:33:42;0.80;;;0.80;;
3571;SDS011;7958;53.024;12.970;2023-04-03T08:36:15;3.00;;;0.80;;
3571;SDS011;7958;53.024;12.970;2023-04-03T08:38:44;1.60;;;0.90;;
3571;SDS011;7958;53.024;12.970;2023-04-03T08:41:11;4.57;;;0.83;;
3571;SDS011;7958;53.024;12.970;2023-04-03T08:43:47;1.37;;;0.80;;
3571;SDS011;7958;53.024;12.970;2023-04-03T08:46:20;1.83;;;0.80;;
3571;SDS011;7958;53.024;12.970;2023-04-03T08:48:49;0.93;;;0.93;;
3571;SDS011;7958;53.024;12.970;2023-04-03T08:51:18;1.47;;;1.00;;
3571;SDS011;7958;53.024;12.970;2023-04-03T08:53:47;0.97;;;0.73;;
3571;SDS011;7958;53.024;12.970;2023-04-03T08:56:19;1.33;;;0.80;;
3571;SDS011;7958;53.024;12.970;2023-04-03T08:58:48;1.33;;;0.90;;
3571;SDS011;7958;53.024;12.970;2023-04-03T09:01:19;1.23;;;0.80;;
3571;SDS011;7958;53.024;12.970;2023-04-03T09:03:47;2.30;;;1.10;;
3571;SDS011;7958;53.024;12.970;2023-04-03T09:06:15;0.90;;;0.70;;
3571;SDS011;7958;53.024;12.970;2023-04-03T09:08:45;1.50;;;1.00;;
3571;SDS011;7958;53.024;12.970;2023-04-03T09:11:17;1.87;;;0.97;;
3571;SDS011;7958;53.024;12.970;2023-04-03T09:13:49;6.63;;;0.90;;
3571;SDS011;7958;53.024;12.970;2023-04-03T09:16:20;1.17;;;0.70;;
3571;SDS011;7958;53.024;12.970;2023-04-03T09:18:56;2.37;;;0.90;;
3571;SDS011;7958;53.024;12.970;2023-04-03T09:21:27;0.83;;;0.83;;
3571;SDS011;7958;53.024;12.970;2023-04-03T09:23:58;2.20;;;1.03;;
3571;SDS011;7958;53.024;12.970;2023-04-03T09:26:28;1.80;;;0.90;;
3571;SDS011;7958;53.024;12.970;2023-04-03T09:28:57;1.00;;;0.90;;
3571;SDS011;7958;53.024;12.970;2023-04-03T09:31:26;1.53;;;1.00;;
3571;SDS011;7958;53.024;12.970;2023-04-03T09:33:55;2.00;;;0.90;;
3571;SDS011;7958;53.024;12.970;2023-04-03T09:36:37;1.40;;;0.90;;
3571;SDS011;7958;53.024;12.970;2023-04-03T09:39:05;1.27;;;1.00;;
3571;SDS011;7958;53.024;12.970;2023-04-03T09:41:34;1.43;;;0.93;;
3571;SDS011;7958;53.024;12.970;2023-04-03T09:44:01;2.67;;;1.10;;
3571;SDS011;7958;53.024;12.970;2023-04-03T09:46:31;1.53;;;1.20;;
3571;SDS011;7958;53.024;12.970;2023-04-03T09:48:59;2.37;;;1.10;;
3571;SDS011;7958;53.024;12.970;2023-04-03T09:51:26;2.20;;;1.23;;
3571;SDS011;7958;53.024;12.970;2023-04-03T09:53:56;1.53;;;0.90;;
3571;SDS011;7958;53.024;12.970;2023-04-03T09:56:27;1.33;;;1.03;;
3571;SDS011;7958;53.024;12.970;2023-04-03T09:59:14;2.00;;;0.80;;
3571;SDS011;7958;53.024;12.970;2023-04-03T10:01:42;1.53;;;0.80;;
3571;SDS011;7958;53.024;12.970;2023-04-03T10:07:29;2.10;;;1.27;;
3571;SDS011;7958;53.024;12.970;2023-04-03T10:09:58;1.23;;;0.90;;
3571;SDS011;7958;53.024;12.970;2023-04-03T10:12:30;3.90;;;2.27;;
3571;SDS011;7958;53.024;12.970;2023-04-03T10:15:00;5.03;;;3.60;;
3571;SDS011;7958;53.024;12.970;2023-04-03T10:17:31;11.13;;;6.60;;
3571;SDS011;7958;53.024;12.970;2023-04-03T10:20:05;7.20;;;3.80;;
3571;SDS011;7958;53.024;12.970;2023-04-03T10:22:55;4.77;;;3.73;;
3571;SDS011;7958;53.024;12.970;2023-04-03T10:25:27;5.43;;;2.00;;
3571;SDS011;7958;53.024;12.970;2023-04-03T10:27:58;2.77;;;1.33;;
3571;SDS011;7958;53.024;12.970;2023-04-03T10:30:33;1.60;;;1.00;;
3571;SDS011;7958;53.024;12.970;2023-04-03T10:33:16;3.43;;;0.90;;
3571;SDS011;7958;53.024;12.970;2023-04-03T10:35:49;0.87;;;0.70;;
3571;SDS011;7958;53.024;12.970;2023-04-03T10:38:28;1.27;;;1.00;;
3571;SDS011;7958;53.024;12.970;2023-04-03T10:41:02;0.80;;;0.80;;
3571;SDS011;7958;53.024;12.970;2023-04-03T10:43:33;0.73;;;0.73;;
3571;SDS011;7958;53.024;12.970;2023-04-03T10:46:05;1.63;;;1.43;;
3571;SDS011;7958;53.024;12.970;2023-04-03T10:48:47;1.93;;;1.13;;
3571;SDS011;7958;53.024;12.970;2023-04-03T10:51:25;2.13;;;0.97;;
3571;SDS011;7958;53.024;12.970;2023-04-03T10:53:56;3.27;;;1.23;;
3571;SDS011;7958;53.024;12.970;2023-04-03T10:56:28;0.93;;;0.80;;
3571;SDS011;7958;53.024;12.970;2023-04-03T10:59:00;2.53;;;2.07;;
3571;SDS011;7958;53.024;12.970;2023-04-03T11:01:32;12.33;;;3.43;;
3571;SDS011;7958;53.024;12.970;2023-04-03T11:04:00;5.43;;;2.03;;
3571;SDS011;7958;53.024;12.970;2023-04-03T11:06:30;2.63;;;1.43;;
3571;SDS011;7958;53.024;12.970;2023-04-03T11:09:00;1.90;;;0.70;;
3571;SDS011;7958;53.024;12.970;2023-04-03T11:11:33;1.03;;;0.87;;
3571;SDS011;7958;53.024;12.970;2023-04-03T11:14:02;1.63;;;1.00;;
3571;SDS011;7958;53.024;12.970;2023-04-03T11:16:33;2.70;;;1.00;;
3571;SDS011;7958;53.024;12.970;2023-04-03T11:19:02;1.33;;;1.00;;
3571;SDS011;7958;53.024;12.970;2023-04-03T11:21:35;1.57;;;1.30;;
3571;SDS011;7958;53.024;12.970;2023-04-03T11:24:05;1.17;;;1.07;;
3571;SDS011;7958;53.024;12.970;2023-04-03T11:26:43;3.00;;;1.10;;
3571;SDS011;7958;53.024;12.970;2023-04-03T11:29:11;2.57;;;0.90;;
3571;SDS011;7958;53.024;12.970;2023-04-03T11:31:45;0.90;;;0.70;;
3571;SDS011;7958;53.024;12.970;2023-04-03T11:34:25;0.97;;;0.70;;
3571;SDS011;7958;53.024;12.970;2023-04-03T11:36:59;2.73;;;0.87;;
3571;SDS011;7958;53.024;12.970;2023-04-03T11:39:28;8.57;;;1.37;;
3571;SDS011;7958;53.024;12.970;2023-04-03T11:42:07;1.07;;;0.97;;
3571;SDS011;7958;53.024;12.970;2023-04-03T11:44:41;2.07;;;1.20;;
3571;SDS011;7958;53.024;12.970;2023-04-03T11:47:11;1.80;;;0.87;;
3571;SDS011;7958;53.024;12.970;2023-04-03T11:49:58;1.80;;;1.20;;
3571;SDS011;7958;53.024;12.970;2023-04-03T11:55:42;1.13;;;0.90;;
3571;SDS011;7958;53.024;12.970;2023-04-03T11:58:13;3.70;;;1.33;;
3571;SDS011;7958;53.024;12.970;2023-04-03T12:12:57;0.73;;;0.73;;
3571;SDS011;7958;53.024;12.970;2023-04-03T12:21:10;0.80;;;0.80;;
3571;SDS011;7958;53.024;12.970;2023-04-03T12:26:30;3.40;;;0.90;;
3571;SDS011;7958;53.024;12.970;2023-04-03T12:28:58;1.03;;;0.80;;
3571;SDS011;7958;53.024;12.970;2023-04-03T12:31:25;0.93;;;0.80;;
3571;SDS011;7958;53.024;12.970;2023-04-03T12:34:11;0.80;;;0.80;;
3571;SDS011;7958;53.024;12.970;2023-04-03T12:36:49;2.43;;;0.83;;
3571;SDS011;7958;53.024;12.970;2023-04-03T12:39:36;3.13;;;1.20;;
3571;SDS011;7958;53.024;12.970;2023-04-03T12:42:20;3.70;;;0.93;;
3571;SDS011;7958;53.024;12.970;2023-04-03T12:44:56;0.83;;;0.83;;
3571;SDS011;7958;53.024;12.970;2023-04-03T12:47:28;1.53;;;0.90;;
3571;SDS011;7958;53.024;12.970;2023-04-03T12:49:58;2.80;;;0.90;;
3571;SDS011;7958;53.024;12.970;2023-04-03T12:52:35;2.23;;;1.30;;
3571;SDS011;7958;53.024;12.970;2023-04-03T12:55:14;1.43;;;1.33;;
3571;SDS011;7958;53.024;12.970;2023-04-03T12:57:44;4.40;;;2.47;;
3571;SDS011;7958;53.024;12.970;2023-04-03T13:00:22;2.70;;;1.77;;
3571;SDS011;7958;53.024;12.970;2023-04-03T13:02:58;5.00;;;1.63;;
3571;SDS011;7958;53.024;12.970;2023-04-03T13:05:25;4.30;;;1.77;;
3571;SDS011;7958;53.024;12.970;2023-04-03T13:07:54;1.37;;;1.27;;
3571;SDS011;7958;53.024;12.970;2023-04-03T13:10:24;2.50;;;1.57;;
3571;SDS011;7958;53.024;12.970;2023-04-03T13:12:53;1.50;;;1.40;;
3571;SDS011;7958;53.024;12.970;2023-04-03T13:15:22;5.80;;;1.87;;
3571;SDS011;7958;53.024;12.970;2023-04-03T13:17:51;1.93;;;1.40;;
3571;SDS011;7958;53.024;12.970;2023-04-03T13:20:20;2.30;;;1.30;;
3571;SDS011;7958;53.024;12.970;2023-04-03T13:22:50;2.93;;;2.40;;
3571;SDS011;7958;53.024;12.970;2023-04-03T13:25:19;5.03;;;3.60;;
3571;SDS011;7958;53.024;12.970;2023-04-03T13:27:47;7.37;;;4.93;;
3571;SDS011;7958;53.024;12.970;2023-04-03T13:30:20;3.03;;;2.20;;
3571;SDS011;7958;53.024;12.970;2023-04-03T13:32:49;2.20;;;1.30;;
3571;SDS011;7958;53.024;12.970;2023-04-03T13:35:33;1.97;;;1.60;;
3571;SDS011;7958;53.024;12.970;2023-04-03T13:38:04;2.93;;;1.77;;
3571;SDS011;7958;53.024;12.970;2023-04-03T13:40:33;5.17;;;1.60;;
3571;SDS011;7958;53.024;12.970;2023-04-03T13:43:01;2.10;;;1.20;;
3571;SDS011;7958;53.024;12.970;2023-04-03T13:45:34;2.93;;;1.67;;
3571;SDS011;7958;53.024;12.970;2023-04-03T13:48:09;4.10;;;3.20;;
3571;SDS011;7958;53.024;12.970;2023-04-03T13:50:51;5.03;;;2.90;;
3571;SDS011;7958;53.024;12.970;2023-04-03T13:53:20;7.00;;;2.40;;
3571;SDS011;7958;53.024;12.970;2023-04-03T13:55:52;4.93;;;3.47;;
3571;SDS011;7958;53.024;12.970;2023-04-03T13:58:24;1.90;;;1.80;;
3571;SDS011;7958;53.024;12.970;2023-04-03T14:00:53;2.23;;;1.63;;
3571;SDS011;7958;53.024;12.970;2023-04-03T14:03:23;3.00;;;1.70;;
3571;SDS011;7958;53.024;12.970;2023-04-03T14:05:52;1.83;;;1.00;;
3571;SDS011;7958;53.024;12.970;2023-04-03T14:08:20;2.20;;;1.23;;
3571;SDS011;7958;53.024;12.970;2023-04-03T14:10:47;4.50;;;2.37;;
3571;SDS011;7958;53.024;12.970;2023-04-03T14:13:15;1.57;;;1.07;;
3571;SDS011;7958;53.024;12.970;2023-04-03T14:15:44;1.50;;;1.40;;
3571;SDS011;7958;53.024;12.970;2023-04-03T14:18:13;2.00;;;1.13;;
3571;SDS011;7958;53.024;12.970;2023-04-03T14:20:40;1.80;;;1.40;;
3571;SDS011;7958;53.024;12.970;2023-04-03T14:23:10;4.07;;;2.67;;
3571;SDS011;7958;53.024;12.970;2023-04-03T14:25:37;4.77;;;1.80;;
3571;SDS011;7958;53.024;12.970;2023-04-03T14:28:07;1.60;;;1.37;;
3571;SDS011;7958;53.024;12.970;2023-04-03T14:30:40;1.80;;;1.33;;
3571;SDS011;7958;53.024;12.970;2023-04-03T14:33:09;3.07;;;2.27;;
3571;SDS011;7958;53.024;12.970;2023-04-03T14:35:40;2.00;;;0.97;;
3571;SDS011;7958;53.024;12.970;2023-04-03T14:38:12;2.83;;;1.70;;
3571;SDS011;7958;53.024;12.970;2023-04-03T14:40:47;1.57;;;1.30;;
3571;SDS011;7958;53.024;12.970;2023-04-03T14:43:14;1.77;;;1.07;;
3571;SDS011;7958;53.024;12.970;2023-04-03T14:45:43;2.40;;;1.33;;
3571;SDS011;7958;53.024;12.970;2023-04-03T14:48:09;1.67;;;1.53;;
3571;SDS011;7958;53.024;12.970;2023-04-03T14:50:41;2.40;;;0.90;;
3571;SDS011;7958;53.024;12.970;2023-04-03T14:53:10;2.70;;;1.30;;
3571;SDS011;7958;53.024;12.970;2023-04-03T14:55:37;0.90;;;0.90;;
3571;SDS011;7958;53.024;12.970;2023-04-03T14:58:04;2.67;;;1.40;;
3571;SDS011;7958;53.024;12.970;2023-04-03T15:00:31;2.43;;;1.57;;
3571;SDS011;7958;53.024;12.970;2023-04-03T15:02:58;1.60;;;1.10;;
3571;SDS011;7958;53.024;12.970;2023-04-03T15:05:24;5.33;;;2.17;;
3571;SDS011;7958;53.024;12.970;2023-04-03T15:07:54;2.50;;;2.30;;
3571;SDS011;7958;53.024;12.970;2023-04-03T15:10:22;4.53;;;1.20;;
3571;SDS011;7958;53.024;12.970;2023-04-03T15:12:54;1.10;;;1.00;;
3571;SDS011;7958;53.024;12.970;2023-04-03T15:15:21;3.00;;;1.03;;
3571;SDS011;7958;53.024;12.970;2023-04-03T15:17:50;1.43;;;1.33;;
3571;SDS011;7958;53.024;12.970;2023-04-03T15:20:20;1.10;;;1.00;;
3571;SDS011;7958;53.024;12.970;2023-04-03T15:22:47;3.17;;;1.20;;
3571;SDS011;7958;53.024;12.970;2023-04-03T15:25:19;1.33;;;0.80;;
3571;SDS011;7958;53.024;12.970;2023-04-03T15:27:46;0.93;;;0.93;;
3571;SDS011;7958;53.024;12.970;2023-04-03T15:30:14;2.40;;;1.50;;
3571;SDS011;7958;53.024;12.970;2023-04-03T15:32:42;2.63;;;1.70;;
3571;SDS011;7958;53.024;12.970;2023-04-03T15:35:09;1.93;;;1.70;;
3571;SDS011;7958;53.024;12.970;2023-04-03T15:37:37;10.73;;;4.80;;
3571;SDS011;7958;53.024;12.970;2023-04-03T15:40:04;28.70;;;14.43;;